createdAt,value
2018-07-12T00:00:28.787Z,28.60
2018-07-12T00:03:30.880Z,29.47
2018-07-12T00:06:32.439Z,27.93
2018-07-12T00:09:34.464Z,28.80
2018-07-12T00:12:36.544Z,26.53
2018-07-12T00:15:38.648Z,27.50
2018-07-12T00:18:40.677Z,26.63
2018-07-12T00:21:42.763Z,27.77
2018-07-12T00:24:44.343Z,28.27
2018-07-12T00:27:46.326Z,28.87
2018-07-12T00:30:48.446Z,28.67
2018-07-12T00:33:50.531Z,29.83
2018-07-12T00:36:52.703Z,28.27
2018-07-12T00:39:54.683Z,30.17
2018-07-12T00:42:56.646Z,30.23
2018-07-12T00:45:58.696Z,29.07
2018-07-12T00:49:00.765Z,29.37
2018-07-12T00:52:02.718Z,28.87
2018-07-12T00:55:04.810Z,31.00
2018-07-12T00:58:06.436Z,29.30
2018-07-12T01:01:08.506Z,28.97
2018-07-12T01:04:09.984Z,31.17
2018-07-12T01:07:12.056Z,32.27
2018-07-12T01:10:14.044Z,30.90
2018-07-12T01:13:16.157Z,34.03
2018-07-12T01:16:18.169Z,32.83
2018-07-12T01:19:20.299Z,32.40
2018-07-12T01:22:22.317Z,33.63
2018-07-12T01:25:24.290Z,33.53
2018-07-12T01:28:26.392Z,33.67
2018-07-12T01:31:28.494Z,34.03
2018-07-12T01:34:30.043Z,31.53
2018-07-12T01:37:32.074Z,32.83
2018-07-12T01:40:33.680Z,33.27
2018-07-12T01:43:35.340Z,28.90
2018-07-12T01:46:36.924Z,29.33
2018-07-12T01:49:39.012Z,29.50
2018-07-12T01:52:40.996Z,30.23
2018-07-12T01:55:43.494Z,30.20
2018-07-12T01:58:45.470Z,27.73
2018-07-12T02:01:47.501Z,26.67
2018-07-12T02:04:49.545Z,26.90
2018-07-12T02:07:51.142Z,30.43
2018-07-12T02:10:52.667Z,32.77
2018-07-12T02:13:54.243Z,31.50
2018-07-12T02:16:56.254Z,32.60
2018-07-12T02:19:58.350Z,26.47
2018-07-12T02:23:00.440Z,26.70
2018-07-12T02:26:02.052Z,28.00
2018-07-12T02:29:03.542Z,26.10
2018-07-12T02:32:05.630Z,27.70
2018-07-12T02:35:08.749Z,28.13
2018-07-12T02:38:10.770Z,26.33
2018-07-12T02:41:12.759Z,28.03
2018-07-12T02:44:14.292Z,27.03
2018-07-12T02:47:16.548Z,25.17
2018-07-12T02:50:18.610Z,25.20
2018-07-12T02:53:20.129Z,26.93
2018-07-12T02:56:22.236Z,27.00
2018-07-12T02:59:25.366Z,28.10
2018-07-12T03:02:27.406Z,25.87
2018-07-12T03:05:29.457Z,30.77
2018-07-12T03:08:31.571Z,28.93
2018-07-12T03:11:33.754Z,30.30
2018-07-12T03:14:35.907Z,34.07
2018-07-12T03:17:37.923Z,30.27
2018-07-12T03:20:40.037Z,30.57
2018-07-12T03:23:42.027Z,31.30
2018-07-12T03:26:44.169Z,30.80
2018-07-12T03:29:46.189Z,31.63
2018-07-12T03:32:48.285Z,26.80
2018-07-12T03:35:50.297Z,25.57
2018-07-12T03:38:52.319Z,24.73
2018-07-12T03:41:53.999Z,25.90
2018-07-12T03:44:56.034Z,27.40
2018-07-12T03:47:58.178Z,26.07
2018-07-12T03:50:59.785Z,26.93
2018-07-12T03:54:01.917Z,26.93
2018-07-12T03:57:03.913Z,27.30
2018-07-12T04:00:05.929Z,26.80
2018-07-12T04:03:08.034Z,28.13
2018-07-12T04:06:10.130Z,28.30
2018-07-12T04:09:12.131Z,26.77
2018-07-12T04:12:13.777Z,25.03
2018-07-12T04:15:15.877Z,23.57
2018-07-12T04:18:18.059Z,26.00
2018-07-12T04:21:19.734Z,24.33
2018-07-12T04:24:21.722Z,23.67
2018-07-12T04:27:23.644Z,22.97
2018-07-12T04:30:25.666Z,20.90
2018-07-12T04:33:27.657Z,20.77
2018-07-12T04:36:29.804Z,19.60
2018-07-12T04:39:31.816Z,20.93
2018-07-12T04:42:33.782Z,20.50
2018-07-12T04:45:35.861Z,21.57
2018-07-12T04:48:37.969Z,22.30
2018-07-12T04:51:40.236Z,22.47
2018-07-12T04:54:42.313Z,21.73
2018-07-12T04:57:44.355Z,22.93
2018-07-12T05:00:46.352Z,22.37
2018-07-12T05:03:48.301Z,21.13
2018-07-12T05:06:49.939Z,20.30
2018-07-12T05:09:53.001Z,20.00
2018-07-12T05:12:55.117Z,18.60
2018-07-12T05:15:57.342Z,18.27
2018-07-12T05:18:59.541Z,18.90
2018-07-12T05:22:01.738Z,18.90
2018-07-12T05:25:05.407Z,17.27
2018-07-12T05:28:07.083Z,17.37
2018-07-12T05:31:12.133Z,16.80
2018-07-12T05:34:13.638Z,14.40
2018-07-12T05:37:17.767Z,16.43
2018-07-12T05:40:20.851Z,14.10
2018-07-12T05:43:25.015Z,14.53
2018-07-12T05:46:28.216Z,20.13
2018-07-12T05:49:32.329Z,20.30
2018-07-12T05:52:35.526Z,20.07
2018-07-12T05:55:38.551Z,20.43
2018-07-12T05:58:42.762Z,20.20
2018-07-12T06:01:57.398Z,18.83
2018-07-12T06:05:01.623Z,17.23
2018-07-12T06:08:04.758Z,16.07
2018-07-12T06:11:07.991Z,16.00
2018-07-12T06:14:11.455Z,15.70
2018-07-12T06:17:19.921Z,14.20
2018-07-12T06:20:24.147Z,15.07
2018-07-12T06:23:27.391Z,15.63
2018-07-12T06:26:31.852Z,15.07
2018-07-12T06:29:35.231Z,15.37
2018-07-12T06:32:40.288Z,13.43
2018-07-12T06:35:45.430Z,15.10
2018-07-12T06:38:52.498Z,14.27
2018-07-12T06:41:56.571Z,14.00
2018-07-12T06:45:06.274Z,13.23
2018-07-12T06:48:09.698Z,13.10
2018-07-12T06:51:12.998Z,12.83
2018-07-12T06:54:21.031Z,13.00
2018-07-12T06:57:24.098Z,11.73
2018-07-12T07:00:27.117Z,11.87
2018-07-12T07:03:30.213Z,11.27
2018-07-12T07:06:34.486Z,11.80
2018-07-12T07:09:37.799Z,10.43
2018-07-12T07:12:41.180Z,11.10
2018-07-12T07:15:45.713Z,10.67
2018-07-12T07:18:49.242Z,9.63
2018-07-12T07:21:54.603Z,9.23
2018-07-12T07:24:57.955Z,8.90
2018-07-12T07:28:02.475Z,7.83
2018-07-12T07:31:05.913Z,5.90
2018-07-12T07:34:13.816Z,5.60
2018-07-12T07:37:17.046Z,5.20
2018-07-12T07:40:20.055Z,4.73
2018-07-12T07:43:23.233Z,4.30
2018-07-12T07:46:26.242Z,4.03
2018-07-12T07:49:35.877Z,3.40
2018-07-12T07:52:42.345Z,3.97
2018-07-12T07:55:45.523Z,3.23
2018-07-12T07:58:48.805Z,3.87
2018-07-12T08:01:54.114Z,3.73
2018-07-12T08:04:57.324Z,4.03
2018-07-12T08:08:07.184Z,3.47
2018-07-12T08:11:13.530Z,3.20
2018-07-12T08:14:17.534Z,3.13
2018-07-12T08:17:26.371Z,3.10
2018-07-12T08:20:33.742Z,3.10
2018-07-12T08:23:37.604Z,2.47
2018-07-12T08:26:45.545Z,3.30
2018-07-12T08:29:48.934Z,2.70
2018-07-12T08:32:52.444Z,2.83
2018-07-12T08:35:56.926Z,2.50
2018-07-12T08:39:00.318Z,2.47
2018-07-12T08:42:03.628Z,2.03
2018-07-12T08:45:08.541Z,1.97
2018-07-12T08:48:15.857Z,2.00
2018-07-12T08:51:22.773Z,2.13
2018-07-12T08:54:27.142Z,2.00
2018-07-12T08:57:31.660Z,2.70
2018-07-12T09:00:35.335Z,2.67
2018-07-12T09:03:38.565Z,2.40
2018-07-12T09:06:41.577Z,1.87
2018-07-12T09:09:44.741Z,2.80
2018-07-12T09:12:48.822Z,2.37
2018-07-12T09:15:52.039Z,2.47
2018-07-12T09:18:55.154Z,1.77
2018-07-12T09:24:54.698Z,1.67
2018-07-12T09:27:57.378Z,1.33
2018-07-12T09:30:59.987Z,1.60
2018-07-12T09:34:02.429Z,1.50
2018-07-12T09:37:11.006Z,1.50
2018-07-12T09:40:16.615Z,1.38
2018-07-12T09:43:19.857Z,1.20
2018-07-12T09:46:27.654Z,1.10
2018-07-12T09:49:29.969Z,1.00
2018-07-12T09:52:33.231Z,0.90
2018-07-12T09:55:39.043Z,1.07
2018-07-12T09:58:42.020Z,1.00
2018-07-12T10:01:50.372Z,0.90
2018-07-12T10:04:52.805Z,0.93
2018-07-12T10:08:00.974Z,1.03
2018-07-12T10:11:06.065Z,1.57
2018-07-12T10:14:14.122Z,1.50
2018-07-12T10:17:22.051Z,1.83
2018-07-12T10:20:25.513Z,1.40
2018-07-12T10:23:27.669Z,1.50
2018-07-12T10:26:30.006Z,1.13
2018-07-12T10:29:32.255Z,1.20
2018-07-12T10:32:34.460Z,1.27
2018-07-12T10:35:36.762Z,1.33
2018-07-12T10:38:39.939Z,1.50
2018-07-12T10:41:42.217Z,3.40
2018-07-12T10:44:51.253Z,3.43
2018-07-12T10:47:53.551Z,3.57
2018-07-12T10:50:55.900Z,3.63
2018-07-12T10:53:58.163Z,3.03
2018-07-12T10:57:00.362Z,3.30
2018-07-12T11:00:05.336Z,2.87
2018-07-12T11:03:08.070Z,3.87
2018-07-12T11:06:10.502Z,3.70
2018-07-12T11:09:12.968Z,2.80
2018-07-12T11:12:15.264Z,2.93
2018-07-12T11:15:17.591Z,3.00
2018-07-12T11:18:19.877Z,2.90
2018-07-12T11:21:22.180Z,2.90
2018-07-12T11:24:24.481Z,2.53
2018-07-12T11:27:28.770Z,3.27
2018-07-12T11:30:31.716Z,2.87
2018-07-12T11:33:40.048Z,3.27
2018-07-12T11:36:42.387Z,2.90
2018-07-12T11:39:44.660Z,4.13
2018-07-12T11:43:18.246Z,3.73
2018-07-12T11:46:20.566Z,3.57
2018-07-12T11:49:22.890Z,3.60
2018-07-12T11:52:25.155Z,3.17
2018-07-12T11:55:27.573Z,2.73
2018-07-12T11:58:31.353Z,3.20
2018-07-12T12:01:34.850Z,3.10
2018-07-12T12:04:50.494Z,3.37
2018-07-12T12:08:00.962Z,3.77
2018-07-12T12:14:30.535Z,3.93
2018-07-12T12:23:21.852Z,3.80
2018-07-12T12:26:34.947Z,4.13
2018-07-12T12:29:56.586Z,3.80
2018-07-12T12:33:12.191Z,4.00
2018-07-12T12:36:26.550Z,4.13
2018-07-12T12:39:54.191Z,4.73
2018-07-12T12:42:59.624Z,4.50
2018-07-12T12:46:02.837Z,5.17
2018-07-12T12:49:12.670Z,4.80
2018-07-12T12:52:24.681Z,5.20
2018-07-12T12:55:26.938Z,5.00
2018-07-12T12:58:36.046Z,5.10
2018-07-12T13:01:38.257Z,5.00
2018-07-12T13:04:46.165Z,4.73
2018-07-12T13:07:51.944Z,4.80
2018-07-12T13:10:54.205Z,5.17
2018-07-12T13:14:15.931Z,4.40
2018-07-12T13:17:20.169Z,4.60
2018-07-12T13:20:22.370Z,4.90
2018-07-12T13:23:29.795Z,5.00
2018-07-12T13:26:44.162Z,4.80
2018-07-12T13:29:51.227Z,4.40
2018-07-12T13:32:53.508Z,4.90
2018-07-12T13:35:57.734Z,5.07
2018-07-12T13:38:59.940Z,5.10
2018-07-12T13:42:04.272Z,4.07
2018-07-12T13:45:12.293Z,4.00
2018-07-12T13:48:15.517Z,4.40
2018-07-12T13:51:17.821Z,4.30
2018-07-12T13:54:21.118Z,4.43
2018-07-12T13:57:24.456Z,4.67
2018-07-12T14:00:27.690Z,4.47
2018-07-12T14:03:36.257Z,3.90
2018-07-12T14:06:41.559Z,4.60
2018-07-12T14:09:43.745Z,4.43
2018-07-12T14:12:47.036Z,4.30
2018-07-12T14:15:50.333Z,4.33
2018-07-12T14:18:52.660Z,4.73
2018-07-12T14:21:55.881Z,4.43
2018-07-12T14:24:58.066Z,4.43
2018-07-12T14:28:02.385Z,5.13
2018-07-12T14:31:04.609Z,4.30
2018-07-12T14:34:07.824Z,4.27
2018-07-12T14:37:14.417Z,4.87
2018-07-12T14:40:16.613Z,5.17
2018-07-12T14:43:18.886Z,4.10
2018-07-12T14:46:22.174Z,5.00
2018-07-12T14:49:32.077Z,5.37
2018-07-12T14:52:36.383Z,4.40
2018-07-12T14:55:42.203Z,4.67
2018-07-12T14:58:46.447Z,4.63
2018-07-12T15:01:49.688Z,4.40
2018-07-12T15:04:51.924Z,5.13
2018-07-12T15:07:58.165Z,4.93
2018-07-12T15:11:00.393Z,5.40
2018-07-12T15:14:03.656Z,5.17
2018-07-12T15:17:06.870Z,5.10
2018-07-12T15:20:13.452Z,4.77
2018-07-12T15:23:15.709Z,5.33
2018-07-12T15:26:20.053Z,4.87
2018-07-12T15:29:22.220Z,4.80
2018-07-12T15:32:26.432Z,5.63
2018-07-12T15:35:28.704Z,5.07
2018-07-12T15:38:31.001Z,5.37
2018-07-12T15:41:37.104Z,5.17
2018-07-12T15:44:40.365Z,5.17
2018-07-12T15:47:42.613Z,4.73
2018-07-12T15:50:44.814Z,4.73
2018-07-12T15:53:52.865Z,4.90
2018-07-12T15:56:56.061Z,5.50
2018-07-12T15:59:58.326Z,5.00
2018-07-12T16:03:00.598Z,5.27
2018-07-12T16:06:03.973Z,5.03
2018-07-12T16:09:09.001Z,5.13
2018-07-12T16:12:11.232Z,5.27
2018-07-12T16:15:14.433Z,4.83
2018-07-12T16:18:17.745Z,4.67
2018-07-12T16:21:19.965Z,4.90
2018-07-12T16:24:23.148Z,5.10
2018-07-12T16:27:29.928Z,5.20
2018-07-12T16:30:32.226Z,4.93
2018-07-12T16:33:34.430Z,4.97
2018-07-12T16:36:36.642Z,4.77
2018-07-12T16:39:39.843Z,4.77
2018-07-12T16:42:43.721Z,4.77
2018-07-12T16:45:46.941Z,4.23
2018-07-12T16:48:49.132Z,4.67
2018-07-12T16:51:51.625Z,4.73
2018-07-12T16:54:53.918Z,4.63
2018-07-12T16:57:57.324Z,4.73
2018-07-12T17:00:59.552Z,4.60
2018-07-12T17:04:03.851Z,5.27
2018-07-12T17:07:08.116Z,5.43
2018-07-12T17:10:11.377Z,5.10
2018-07-12T17:13:13.651Z,5.10
2018-07-12T17:16:17.893Z,5.20
2018-07-12T17:19:37.233Z,5.20
2018-07-12T17:22:39.417Z,4.90
2018-07-12T17:25:41.630Z,4.87
2018-07-12T17:28:44.969Z,5.00
2018-07-12T17:31:49.201Z,4.47
2018-07-12T17:34:54.991Z,4.43
2018-07-12T17:37:57.220Z,4.40
2018-07-12T17:40:59.535Z,4.53
2018-07-12T17:44:03.809Z,4.27
2018-07-12T17:47:06.163Z,4.50
2018-07-12T17:50:08.352Z,4.60
2018-07-12T17:53:10.648Z,4.50
2018-07-12T17:56:12.865Z,5.73
2018-07-12T17:59:26.498Z,5.23
2018-07-12T18:02:31.200Z,5.50
2018-07-12T18:05:33.512Z,4.93
2018-07-12T18:08:35.881Z,4.67
2018-07-12T18:12:57.084Z,6.73
2018-07-12T18:16:49.165Z,6.23
2018-07-12T18:23:23.308Z,6.70
2018-07-12T18:26:56.199Z,7.17
2018-07-12T18:30:10.855Z,6.80
2018-07-12T18:33:13.494Z,6.63
2018-07-12T18:36:16.179Z,7.07
2018-07-12T18:39:18.730Z,7.27
2018-07-12T18:42:21.328Z,7.30
2018-07-12T18:45:23.689Z,7.47
2018-07-12T18:48:25.945Z,8.23
2018-07-12T18:51:28.234Z,7.10
2018-07-12T18:54:30.649Z,8.10
2018-07-12T18:57:37.227Z,10.73
2018-07-12T19:00:39.623Z,11.40
2018-07-12T19:03:41.981Z,9.30
2018-07-12T19:06:44.398Z,6.93
2018-07-12T19:09:46.797Z,8.03
2018-07-12T19:12:49.156Z,8.57
2018-07-12T19:15:51.813Z,8.47
2018-07-12T19:18:54.462Z,9.23
2018-07-12T19:21:57.151Z,8.03
2018-07-12T19:24:59.779Z,7.90
2018-07-12T19:28:02.434Z,8.20
2018-07-12T19:31:05.157Z,7.27
2018-07-12T19:34:08.886Z,8.23
2018-07-12T19:37:11.447Z,8.13
2018-07-12T19:40:14.275Z,8.77
2018-07-12T19:43:16.794Z,8.13
2018-07-12T19:46:19.319Z,9.23
2018-07-12T19:49:21.920Z,8.97
2018-07-12T19:52:24.363Z,8.90
2018-07-12T19:55:26.721Z,8.27
2018-07-12T19:58:29.089Z,8.73
2018-07-12T20:01:31.443Z,8.60
2018-07-12T20:04:33.749Z,8.13
2018-07-12T20:07:37.067Z,8.23
2018-07-12T20:10:39.431Z,9.03
2018-07-12T20:13:42.013Z,8.23
2018-07-12T20:16:45.506Z,8.60
2018-07-12T20:19:48.023Z,8.43
2018-07-12T20:22:51.500Z,8.33
2018-07-12T20:25:53.865Z,8.30
2018-07-12T20:28:56.347Z,7.53
2018-07-12T20:31:58.701Z,7.23
2018-07-12T20:35:01.145Z,7.40
2018-07-12T20:38:03.473Z,7.70
2018-07-12T20:41:10.168Z,7.50
2018-07-12T20:44:12.577Z,7.77
2018-07-12T20:47:14.845Z,8.17
2018-07-12T20:50:17.230Z,8.00
2018-07-12T20:53:19.622Z,7.70
2018-07-12T20:56:21.959Z,8.03
2018-07-12T20:59:24.503Z,8.37
2018-07-12T21:02:27.099Z,7.53
2018-07-12T21:05:29.550Z,7.40
2018-07-12T21:08:31.952Z,6.73
2018-07-12T21:11:34.326Z,7.60
2018-07-12T21:14:36.759Z,6.73
2018-07-12T21:17:39.272Z,7.53
2018-07-12T21:20:41.807Z,7.67
2018-07-12T21:23:44.317Z,7.50
2018-07-12T21:26:46.554Z,7.67
2018-07-12T21:29:48.881Z,8.10
2018-07-12T21:32:51.205Z,7.57
2018-07-12T21:35:53.599Z,7.37
2018-07-12T21:38:56.081Z,7.43
2018-07-12T21:41:58.425Z,8.10
2018-07-12T21:45:00.938Z,8.20
2018-07-12T21:48:03.372Z,7.97
2018-07-12T21:51:05.810Z,7.60
2018-07-12T21:54:08.815Z,8.23
2018-07-12T21:57:11.434Z,7.70
2018-07-12T22:00:15.076Z,7.33
2018-07-12T22:03:17.809Z,7.70
2018-07-12T22:08:33.516Z,8.80
2018-07-12T22:11:39.571Z,7.67
2018-07-12T22:14:41.877Z,7.67
2018-07-12T22:17:46.257Z,8.63
2018-07-12T22:20:48.636Z,8.40
2018-07-12T22:23:51.022Z,8.73
2018-07-12T22:26:57.908Z,8.93
2018-07-12T22:30:04.130Z,8.47
2018-07-12T22:33:08.888Z,8.07
2018-07-12T22:36:11.389Z,8.77
2018-07-12T22:39:19.091Z,9.27
2018-07-12T22:42:21.525Z,8.30
2018-07-12T22:45:24.109Z,7.67
2018-07-12T22:48:27.629Z,8.53
2018-07-12T22:51:39.880Z,8.70
2018-07-12T22:54:42.460Z,8.80
2018-07-12T22:57:46.020Z,8.63
2018-07-12T23:00:49.614Z,9.13
2018-07-12T23:03:54.010Z,9.27
2018-07-12T23:06:56.610Z,9.57
2018-07-12T23:09:59.023Z,9.83
2018-07-12T23:13:02.599Z,8.70
2018-07-12T23:16:05.103Z,8.87
2018-07-12T23:19:07.703Z,8.80
2018-07-12T23:22:10.175Z,9.30
2018-07-12T23:25:12.631Z,8.90
2018-07-12T23:28:14.979Z,9.00
2018-07-12T23:31:18.411Z,8.73
2018-07-12T23:34:20.982Z,9.77
2018-07-12T23:37:23.589Z,9.07
2018-07-12T23:40:26.137Z,10.60
2018-07-12T23:43:28.637Z,9.27
2018-07-12T23:46:31.097Z,8.87
2018-07-12T23:49:33.465Z,9.87
2018-07-12T23:52:35.896Z,9.93
2018-07-12T23:55:38.251Z,10.67
2018-07-12T23:58:40.638Z,10.90
